createdAt,value
2018-07-03T00:00:22.083Z,36.72
2018-07-03T00:01:22.084Z,36.63
2018-07-03T00:02:22.087Z,36.34
2018-07-03T00:03:22.083Z,36.72
2018-07-03T00:04:22.067Z,36.72
2018-07-03T00:05:22.066Z,36.72
2018-07-03T00:06:22.048Z,36.72
2018-07-03T00:07:22.044Z,36.44
2018-07-03T00:08:22.032Z,36.72
2018-07-03T00:09:22.028Z,36.72
2018-07-03T00:10:22.030Z,36.72
2018-07-03T00:11:22.028Z,36.34
2018-07-03T00:12:22.013Z,36.82
2018-07-03T00:13:22.012Z,36.44
2018-07-03T00:14:22.005Z,36.44
2018-07-03T00:15:22.003Z,36.82
2018-07-03T00:16:21.998Z,36.24
2018-07-03T00:17:21.987Z,36.63
2018-07-03T00:18:21.983Z,36.63
2018-07-03T00:19:21.983Z,36.53
2018-07-03T00:20:21.971Z,36.44
2018-07-03T00:21:21.968Z,36.34
2018-07-03T00:22:21.961Z,36.44
2018-07-03T00:23:21.956Z,36.44
2018-07-03T00:24:21.949Z,36.34
2018-07-03T00:25:21.945Z,36.34
2018-07-03T00:26:21.939Z,36.34
2018-07-03T00:27:21.932Z,36.34
2018-07-03T00:28:21.926Z,36.34
2018-07-03T00:29:21.924Z,36.24
2018-07-03T00:30:21.961Z,36.34
2018-07-03T00:31:21.910Z,36.24
2018-07-03T00:32:21.907Z,36.15
2018-07-03T00:33:21.900Z,35.95
2018-07-03T00:34:21.894Z,35.94
2018-07-03T00:35:21.889Z,35.84
2018-07-03T00:36:21.883Z,36.24
2018-07-03T00:37:21.896Z,36.22
2018-07-03T00:38:21.884Z,36.05
2018-07-03T00:39:21.865Z,35.94
2018-07-03T00:40:21.861Z,35.94
2018-07-03T00:41:22.097Z,35.84
2018-07-03T00:42:21.852Z,35.55
2018-07-03T00:43:21.870Z,35.55
2018-07-03T00:44:21.840Z,35.36
2018-07-03T00:45:21.832Z,35.74
2018-07-03T00:46:21.829Z,35.64
2018-07-03T00:47:21.824Z,35.45
2018-07-03T00:48:21.813Z,35.55
2018-07-03T00:49:21.809Z,35.55
2018-07-03T00:50:21.808Z,35.36
2018-07-03T00:51:21.801Z,35.55
2018-07-03T00:52:21.794Z,35.36
2018-07-03T00:53:21.787Z,35.45
2018-07-03T00:54:21.786Z,35.45
2018-07-03T00:55:21.975Z,35.55
2018-07-03T00:56:21.770Z,35.45
2018-07-03T00:57:21.767Z,35.36
2018-07-03T00:58:21.760Z,35.55
2018-07-03T00:59:21.754Z,35.64
2018-07-03T01:00:21.748Z,35.55
2018-07-03T01:01:21.743Z,35.45
2018-07-03T01:02:21.754Z,35.55
2018-07-03T01:03:21.731Z,35.36
2018-07-03T01:04:21.725Z,35.55
2018-07-03T01:05:21.720Z,35.45
2018-07-03T01:06:21.712Z,35.36
2018-07-03T01:07:21.708Z,35.55
2018-07-03T01:08:21.702Z,35.55
2018-07-03T01:09:21.697Z,35.36
2018-07-03T01:10:21.691Z,35.64
2018-07-03T01:11:21.686Z,35.45
2018-07-03T01:12:21.679Z,35.36
2018-07-03T01:13:21.672Z,35.45
2018-07-03T01:14:21.667Z,35.57
2018-07-03T01:15:21.663Z,35.76
2018-07-03T01:16:21.656Z,36.15
2018-07-03T01:17:21.651Z,36.05
2018-07-03T01:18:21.647Z,36.24
2018-07-03T01:19:21.640Z,36.13
2018-07-03T01:20:21.634Z,35.95
2018-07-03T01:21:21.628Z,36.34
2018-07-03T01:22:21.624Z,36.24
2018-07-03T01:23:21.619Z,36.34
2018-07-03T01:24:21.612Z,36.44
2018-07-03T01:25:21.608Z,36.44
2018-07-03T01:26:21.601Z,36.53
2018-07-03T01:27:21.597Z,36.63
2018-07-03T01:28:21.590Z,36.72
2018-07-03T01:29:21.584Z,36.71
2018-07-03T01:30:21.581Z,37.02
2018-07-03T01:31:21.573Z,37.00
2018-07-03T01:32:21.567Z,36.82
2018-07-03T01:33:21.562Z,36.92
2018-07-03T01:34:21.558Z,36.82
2018-07-03T01:35:21.551Z,36.80
2018-07-03T01:36:21.545Z,36.72
2018-07-03T01:37:21.537Z,36.71
2018-07-03T01:38:21.534Z,36.63
2018-07-03T01:39:21.524Z,36.80
2018-07-03T01:40:21.526Z,36.63
2018-07-03T01:41:21.516Z,36.82
2018-07-03T01:42:21.515Z,36.90
2018-07-03T01:43:21.507Z,37.21
2018-07-03T01:44:21.501Z,37.21
2018-07-03T01:45:21.496Z,37.48
2018-07-03T01:46:21.494Z,37.58
2018-07-03T01:47:21.484Z,37.50
2018-07-03T01:48:21.478Z,37.40
2018-07-03T01:49:21.473Z,37.19
2018-07-03T01:50:21.470Z,37.77
2018-07-03T01:51:21.461Z,37.70
2018-07-03T01:52:21.455Z,37.58
2018-07-03T01:53:21.455Z,37.77
2018-07-03T01:54:21.445Z,37.77
2018-07-03T01:55:21.441Z,37.87
2018-07-03T01:56:21.433Z,37.67
2018-07-03T01:57:21.427Z,37.48
2018-07-03T01:58:21.423Z,37.96
2018-07-03T01:59:21.417Z,38.16
2018-07-03T02:00:21.411Z,38.06
2018-07-03T02:01:21.406Z,38.35
2018-07-03T02:02:21.401Z,38.35
2018-07-03T02:03:21.393Z,38.54
2018-07-03T02:04:21.388Z,38.35
2018-07-03T02:05:21.385Z,38.45
2018-07-03T02:06:21.377Z,38.74
2018-07-03T02:07:21.373Z,38.54
2018-07-03T02:08:21.367Z,38.74
2018-07-03T02:09:21.361Z,38.64
2018-07-03T02:10:21.356Z,38.64
2018-07-03T02:11:21.350Z,38.64
2018-07-03T02:12:21.479Z,38.64
2018-07-03T02:13:21.338Z,38.64
2018-07-03T02:14:21.334Z,38.54
2018-07-03T02:15:21.328Z,38.45
2018-07-03T02:16:21.321Z,38.45
2018-07-03T02:17:21.315Z,38.45
2018-07-03T02:18:21.310Z,38.83
2018-07-03T02:19:21.306Z,38.74
2018-07-03T02:20:21.298Z,38.83
2018-07-03T02:21:21.295Z,38.74
2018-07-03T02:22:21.291Z,38.83
2018-07-03T02:23:21.287Z,39.03
2018-07-03T02:24:21.277Z,39.03
2018-07-03T02:25:21.272Z,39.12
2018-07-03T02:26:21.343Z,39.12
2018-07-03T02:27:21.260Z,39.12
2018-07-03T02:28:21.254Z,39.61
2018-07-03T02:29:21.249Z,39.22
2018-07-03T02:30:21.247Z,39.22
2018-07-03T02:31:21.236Z,39.22
2018-07-03T02:32:21.231Z,39.32
2018-07-03T02:33:21.225Z,39.22
2018-07-03T02:34:21.226Z,39.51
2018-07-03T02:35:21.215Z,39.41
2018-07-03T02:36:21.210Z,39.80
2018-07-03T02:37:21.210Z,39.80
2018-07-03T02:38:21.202Z,39.70
2018-07-03T02:39:21.285Z,39.61
2018-07-03T02:40:21.187Z,39.70
2018-07-03T02:41:21.181Z,39.51
2018-07-03T02:42:21.176Z,39.70
2018-07-03T02:43:21.171Z,39.70
2018-07-03T02:44:21.164Z,39.61
2018-07-03T02:45:21.160Z,40.09
2018-07-03T02:46:21.155Z,39.99
2018-07-03T02:47:21.154Z,39.99
2018-07-03T02:48:21.142Z,39.99
2018-07-03T02:49:21.165Z,39.80
2018-07-03T02:50:21.136Z,39.90
2018-07-03T02:51:21.129Z,39.99
2018-07-03T02:52:21.119Z,40.09
2018-07-03T02:53:21.119Z,39.99
2018-07-03T02:54:21.109Z,39.99
2018-07-03T02:55:21.103Z,40.28
2018-07-03T02:56:21.096Z,40.38
2018-07-03T02:57:21.091Z,40.47
2018-07-03T02:58:21.087Z,40.28
2018-07-03T02:59:21.083Z,40.28
2018-07-03T03:00:21.074Z,40.19
2018-07-03T03:01:21.071Z,40.47
2018-07-03T03:02:21.063Z,40.28
2018-07-03T03:03:21.060Z,40.57
2018-07-03T03:04:21.052Z,40.47
2018-07-03T03:05:21.046Z,40.57
2018-07-03T03:06:21.044Z,40.47
2018-07-03T03:07:21.036Z,40.55
2018-07-03T03:08:21.100Z,40.77
2018-07-03T03:09:21.027Z,40.77
2018-07-03T03:10:21.017Z,40.94
2018-07-03T03:11:21.019Z,40.96
2018-07-03T03:12:21.009Z,40.94
2018-07-03T03:13:21.000Z,41.03
2018-07-03T03:14:20.995Z,41.03
2018-07-03T03:15:20.989Z,41.13
2018-07-03T03:16:20.983Z,41.23
2018-07-03T03:17:20.979Z,41.23
2018-07-03T03:18:20.972Z,41.03
2018-07-03T03:19:20.967Z,41.03
2018-07-03T03:20:20.959Z,41.03
2018-07-03T03:21:20.955Z,41.13
2018-07-03T03:22:20.977Z,41.05
2018-07-03T03:23:20.944Z,41.23
2018-07-03T03:24:20.936Z,41.15
2018-07-03T03:25:20.931Z,41.42
2018-07-03T03:26:20.924Z,41.33
2018-07-03T03:27:20.923Z,41.23
2018-07-03T03:28:20.914Z,41.52
2018-07-03T03:29:20.908Z,41.44
2018-07-03T03:30:20.905Z,41.63
2018-07-03T03:31:20.915Z,42.02
2018-07-03T03:32:20.890Z,42.19
2018-07-03T03:33:20.892Z,42.19
2018-07-03T03:34:20.879Z,42.02
2018-07-03T03:35:20.874Z,42.41
2018-07-03T03:36:20.869Z,42.58
2018-07-03T03:37:20.865Z,42.48
2018-07-03T03:38:20.857Z,42.39
2018-07-03T03:39:20.856Z,42.58
2018-07-03T03:40:20.846Z,42.68
2018-07-03T03:41:20.839Z,42.87
2018-07-03T03:42:20.834Z,42.99
2018-07-03T03:43:20.828Z,43.18
2018-07-03T03:44:20.822Z,43.08
2018-07-03T03:45:20.816Z,43.26
2018-07-03T03:46:20.811Z,43.08
2018-07-03T03:47:20.803Z,43.18
2018-07-03T03:48:20.797Z,43.37
2018-07-03T03:49:20.790Z,43.37
2018-07-03T03:50:20.784Z,43.76
2018-07-03T03:51:20.776Z,43.85
2018-07-03T03:52:20.772Z,43.66
2018-07-03T03:53:20.765Z,43.57
2018-07-03T03:54:20.795Z,43.76
2018-07-03T03:55:20.758Z,43.76
2018-07-03T03:56:20.743Z,43.66
2018-07-03T03:57:20.737Z,43.47
2018-07-03T03:58:20.730Z,43.57
2018-07-03T03:59:20.725Z,43.47
2018-07-03T04:00:20.717Z,44.24
2018-07-03T04:01:20.712Z,44.24
2018-07-03T04:02:20.704Z,43.47
2018-07-03T04:03:20.696Z,44.05
2018-07-03T04:04:20.692Z,44.15
2018-07-03T04:05:20.682Z,43.76
2018-07-03T04:06:20.675Z,43.66
2018-07-03T04:07:20.672Z,43.47
2018-07-03T04:08:20.661Z,43.85
2018-07-03T04:09:20.655Z,43.76
2018-07-03T04:10:20.648Z,44.05
2018-07-03T04:11:20.642Z,43.76
2018-07-03T04:12:20.633Z,43.66
2018-07-03T04:13:20.626Z,43.28
2018-07-03T04:14:20.621Z,43.20
2018-07-03T04:15:20.613Z,43.30
2018-07-03T04:16:20.605Z,43.10
2018-07-03T04:17:20.597Z,43.10
2018-07-03T04:18:20.590Z,43.20
2018-07-03T04:19:20.584Z,43.20
2018-07-03T04:20:20.576Z,43.49
2018-07-03T04:21:20.570Z,43.20
2018-07-03T04:22:20.565Z,43.20
2018-07-03T04:23:20.557Z,43.40
2018-07-03T04:24:20.548Z,43.30
2018-07-03T04:25:20.542Z,42.91
2018-07-03T04:26:20.535Z,43.01
2018-07-03T04:27:20.529Z,42.82
2018-07-03T04:28:20.525Z,43.10
2018-07-03T04:29:20.516Z,43.10
2018-07-03T04:30:20.508Z,42.91
2018-07-03T04:31:20.499Z,43.13
2018-07-03T04:32:20.492Z,43.03
2018-07-03T04:33:20.484Z,42.93
2018-07-03T04:34:20.478Z,42.91
2018-07-03T04:35:20.472Z,43.03
2018-07-03T04:36:20.463Z,43.03
2018-07-03T04:37:20.456Z,42.93
2018-07-03T04:38:20.449Z,43.03
2018-07-03T04:39:20.444Z,43.03
2018-07-03T04:40:20.433Z,43.03
2018-07-03T04:41:20.471Z,42.93
2018-07-03T04:42:20.421Z,42.91
2018-07-03T04:43:20.414Z,43.13
2018-07-03T04:44:20.407Z,42.93
2018-07-03T04:45:20.401Z,42.93
2018-07-03T04:46:20.393Z,42.93
2018-07-03T04:47:20.387Z,43.23
2018-07-03T04:48:20.381Z,42.93
2018-07-03T04:49:20.372Z,43.23
2018-07-03T04:50:20.367Z,43.13
2018-07-03T04:51:20.359Z,43.13
2018-07-03T04:52:20.351Z,43.41
2018-07-03T04:53:20.353Z,43.51
2018-07-03T04:54:20.336Z,43.51
2018-07-03T04:55:20.330Z,43.51
2018-07-03T04:56:20.320Z,43.41
2018-07-03T04:57:20.315Z,43.32
2018-07-03T04:58:20.309Z,43.32
2018-07-03T04:59:20.306Z,43.51
2018-07-03T05:00:20.294Z,43.32
2018-07-03T05:01:20.286Z,43.13
2018-07-03T05:02:20.280Z,43.13
2018-07-03T05:03:20.284Z,43.13
2018-07-03T05:04:20.265Z,43.23
2018-07-03T05:05:20.258Z,43.03
2018-07-03T05:06:20.253Z,43.13
2018-07-03T05:07:20.245Z,43.23
2018-07-03T05:08:20.237Z,43.03
2018-07-03T05:09:20.229Z,43.13
2018-07-03T05:10:20.224Z,43.23
2018-07-03T05:11:20.217Z,43.32
2018-07-03T05:12:20.209Z,43.23
2018-07-03T05:13:20.202Z,43.32
2018-07-03T05:14:20.195Z,43.41
2018-07-03T05:15:20.189Z,43.41
2018-07-03T05:16:20.181Z,43.41
2018-07-03T05:17:20.217Z,43.80
2018-07-03T05:18:20.167Z,43.20
2018-07-03T05:19:20.161Z,43.59
2018-07-03T05:20:20.154Z,43.99
2018-07-03T05:21:20.146Z,43.68
2018-07-03T05:22:20.161Z,43.68
2018-07-03T05:23:20.134Z,43.78
2018-07-03T05:24:20.132Z,43.59
2018-07-03T05:25:20.120Z,43.71
2018-07-03T05:26:20.140Z,44.09
2018-07-03T05:27:20.106Z,43.71
2018-07-03T05:28:20.100Z,44.19
2018-07-03T05:29:20.093Z,43.99
2018-07-03T05:30:20.084Z,43.98
2018-07-03T05:31:20.093Z,44.07
2018-07-03T05:32:20.068Z,43.68
2018-07-03T05:33:20.063Z,43.78
2018-07-03T05:34:20.056Z,44.17
2018-07-03T05:35:20.047Z,43.99
2018-07-03T05:36:20.042Z,43.71
2018-07-03T05:37:20.040Z,44.09
2018-07-03T05:38:20.031Z,44.09
2018-07-03T05:39:20.022Z,43.90
2018-07-03T05:40:20.015Z,43.80
2018-07-03T05:41:20.007Z,44.09
2018-07-03T05:42:20.001Z,43.99
2018-07-03T05:43:19.992Z,43.71
2018-07-03T05:44:19.990Z,43.80
2018-07-03T05:45:19.979Z,43.80
2018-07-03T05:46:19.975Z,43.61
2018-07-03T05:47:19.965Z,44.09
2018-07-03T05:48:19.958Z,44.19
2018-07-03T05:49:19.956Z,44.19
2018-07-03T05:50:19.944Z,43.71
2018-07-03T05:51:19.944Z,44.19
2018-07-03T05:52:19.933Z,44.19
2018-07-03T05:53:19.923Z,44.09
2018-07-03T05:54:19.917Z,43.99
2018-07-03T05:55:19.911Z,43.99
2018-07-03T05:56:19.956Z,43.90
2018-07-03T05:57:19.896Z,43.71
2018-07-03T05:58:19.889Z,43.90
2018-07-03T05:59:19.884Z,43.90
2018-07-03T06:00:19.876Z,44.09
2018-07-03T06:01:19.871Z,44.09
2018-07-03T06:02:19.862Z,43.92
2018-07-03T06:03:19.857Z,43.99
2018-07-03T06:04:19.848Z,43.90
2018-07-03T06:05:19.840Z,43.71
2018-07-03T06:06:20.344Z,44.09
2018-07-03T06:07:19.827Z,43.80
2018-07-03T06:08:19.822Z,43.82
2018-07-03T06:09:19.954Z,43.99
2018-07-03T06:10:19.826Z,43.99
2018-07-03T06:11:19.880Z,43.82
2018-07-03T06:12:19.795Z,43.90
2018-07-03T06:13:19.787Z,44.09
2018-07-03T06:14:19.779Z,43.92
2018-07-03T06:15:19.770Z,44.02
2018-07-03T06:16:19.771Z,44.02
2018-07-03T06:17:19.759Z,44.02
2018-07-03T06:18:19.754Z,44.02
2018-07-03T06:19:19.747Z,43.92
2018-07-03T06:20:19.739Z,43.73
2018-07-03T06:21:19.732Z,44.12
2018-07-03T06:22:19.725Z,43.82
2018-07-03T06:23:19.726Z,43.82
2018-07-03T06:24:19.711Z,44.12
2018-07-03T06:25:19.704Z,43.82
2018-07-03T06:26:19.698Z,43.92
2018-07-03T06:27:19.693Z,43.92
2018-07-03T06:28:19.684Z,44.02
2018-07-03T06:29:19.679Z,43.73
2018-07-03T06:30:19.670Z,43.73
2018-07-03T06:31:19.668Z,44.12
2018-07-03T06:32:19.658Z,43.92
2018-07-03T06:33:19.651Z,44.02
2018-07-03T06:34:19.645Z,44.02
2018-07-03T06:35:19.638Z,44.02
2018-07-03T06:36:19.632Z,43.82
2018-07-03T06:37:19.644Z,44.21
2018-07-03T06:38:19.618Z,44.02
2018-07-03T06:39:19.625Z,43.92
2018-07-03T06:40:19.603Z,43.82
2018-07-03T06:41:19.597Z,43.92
2018-07-03T06:42:19.590Z,43.92
2018-07-03T06:43:19.585Z,43.82
2018-07-03T06:44:19.578Z,43.82
2018-07-03T06:45:19.574Z,43.82
2018-07-03T06:46:19.563Z,43.73
2018-07-03T06:47:19.597Z,44.02
2018-07-03T06:48:19.549Z,44.04
2018-07-03T06:49:19.543Z,43.85
2018-07-03T06:50:19.536Z,44.04
2018-07-03T06:51:19.533Z,44.04
2018-07-03T06:52:19.523Z,44.04
2018-07-03T06:53:19.517Z,43.85
2018-07-03T06:54:19.510Z,44.04
2018-07-03T06:55:19.504Z,44.13
2018-07-03T06:56:19.496Z,44.23
2018-07-03T06:57:19.491Z,44.13
2018-07-03T06:58:19.485Z,44.23
2018-07-03T06:59:19.477Z,44.23
2018-07-03T07:00:19.476Z,43.75
2018-07-03T07:01:19.464Z,43.85
2018-07-03T07:02:19.458Z,44.04
2018-07-03T07:03:19.451Z,43.75
2018-07-03T07:04:19.444Z,43.65
2018-07-03T07:05:19.439Z,43.75
2018-07-03T07:06:19.432Z,43.65
2018-07-03T07:07:19.425Z,44.13
2018-07-03T07:08:19.418Z,44.33
2018-07-03T07:09:19.515Z,43.65
2018-07-03T07:10:19.406Z,43.65
2018-07-03T07:11:19.399Z,44.33
2018-07-03T07:12:19.393Z,43.65
2018-07-03T07:13:19.383Z,43.75
2018-07-03T07:14:19.380Z,43.77
2018-07-03T07:15:19.375Z,43.55
2018-07-03T07:16:19.366Z,43.75
2018-07-03T07:17:19.362Z,43.75
2018-07-03T07:18:19.352Z,43.55
2018-07-03T07:19:19.351Z,43.68
2018-07-03T07:20:19.339Z,43.77
2018-07-03T07:21:19.333Z,43.65
2018-07-03T07:22:19.328Z,44.04
2018-07-03T07:23:19.360Z,43.75
2018-07-03T07:24:19.315Z,43.77
2018-07-03T07:25:19.308Z,43.77
2018-07-03T07:26:19.303Z,43.77
2018-07-03T07:27:19.297Z,44.06
2018-07-03T07:28:19.288Z,44.06
2018-07-03T07:29:19.337Z,44.16
2018-07-03T07:30:19.277Z,43.38
2018-07-03T07:31:19.271Z,43.58
2018-07-03T07:32:19.264Z,43.96
2018-07-03T07:33:19.256Z,43.87
2018-07-03T07:34:19.252Z,43.29
2018-07-03T07:35:19.244Z,43.58
2018-07-03T07:36:19.237Z,43.29
2018-07-03T07:37:19.231Z,43.48
2018-07-03T07:38:19.233Z,43.48
2018-07-03T07:39:19.219Z,43.58
2018-07-03T07:40:19.212Z,43.38
2018-07-03T07:41:19.206Z,43.38
2018-07-03T07:42:19.202Z,43.29
2018-07-03T07:43:19.192Z,43.29
2018-07-03T07:44:19.186Z,43.29
2018-07-03T07:45:19.204Z,43.41
2018-07-03T07:46:19.176Z,43.41
2018-07-03T07:47:19.172Z,43.21
2018-07-03T07:48:19.164Z,43.12
2018-07-03T07:49:19.154Z,43.41
2018-07-03T07:50:19.160Z,43.12
2018-07-03T07:51:19.142Z,43.41
2018-07-03T07:52:19.137Z,43.31
2018-07-03T07:53:19.130Z,43.31
2018-07-03T07:54:19.124Z,43.60
2018-07-03T07:55:19.117Z,43.41
2018-07-03T07:56:19.146Z,43.41
2018-07-03T07:57:19.105Z,43.41
2018-07-03T07:58:19.099Z,43.31
2018-07-03T07:59:19.114Z,43.41
2018-07-03T08:00:19.119Z,43.41
2018-07-03T08:01:19.093Z,43.41
2018-07-03T08:02:19.074Z,43.50
2018-07-03T08:03:19.068Z,43.50
2018-07-03T08:04:19.061Z,43.41
2018-07-03T08:05:19.056Z,43.62
2018-07-03T08:06:19.050Z,43.62
2018-07-03T08:07:19.045Z,43.50
2018-07-03T08:08:19.039Z,43.12
2018-07-03T08:09:19.031Z,43.04
2018-07-03T08:10:19.027Z,43.13
2018-07-03T08:11:19.020Z,43.13
2018-07-03T08:12:19.012Z,43.13
2018-07-03T08:13:19.028Z,43.13
2018-07-03T08:14:19.003Z,43.33
2018-07-03T08:15:19.000Z,43.04
2018-07-03T08:16:18.989Z,42.94
2018-07-03T08:17:18.985Z,43.23
2018-07-03T08:18:18.978Z,42.75
2018-07-03T08:19:18.972Z,42.75
2018-07-03T08:20:18.969Z,42.75
2018-07-03T08:21:18.963Z,42.75
2018-07-03T08:22:18.954Z,42.85
2018-07-03T08:23:18.953Z,42.85
2018-07-03T08:24:18.941Z,42.75
2018-07-03T08:25:18.936Z,42.85
2018-07-03T08:26:18.931Z,42.75
2018-07-03T08:27:18.923Z,42.85
2018-07-03T08:28:18.917Z,42.85
2018-07-03T08:29:18.914Z,42.75
2018-07-03T08:30:18.904Z,42.55
2018-07-03T08:31:18.903Z,42.55
2018-07-03T08:32:18.905Z,42.55
2018-07-03T08:33:18.887Z,42.38
2018-07-03T08:34:18.882Z,42.48
2018-07-03T08:35:18.878Z,42.48
2018-07-03T08:36:18.870Z,42.67
2018-07-03T08:37:18.872Z,42.29
2018-07-03T08:38:18.863Z,42.57
2018-07-03T08:39:18.854Z,42.67
2018-07-03T08:40:18.849Z,42.29
2018-07-03T08:41:18.840Z,42.29
2018-07-03T08:42:18.836Z,42.19
2018-07-03T08:43:18.832Z,42.19
2018-07-03T08:44:18.823Z,42.19
2018-07-03T08:45:18.820Z,42.38
2018-07-03T08:46:18.813Z,42.38
2018-07-03T08:47:18.808Z,42.40
2018-07-03T08:48:18.832Z,42.29
2018-07-03T08:49:18.796Z,42.38
2018-07-03T08:50:18.793Z,42.21
2018-07-03T08:51:18.784Z,42.50
2018-07-03T08:52:18.782Z,42.50
2018-07-03T08:53:18.774Z,42.40
2018-07-03T08:54:18.768Z,42.40
2018-07-03T08:55:18.763Z,42.30
2018-07-03T08:56:18.755Z,42.11
2018-07-03T08:57:18.750Z,42.02
2018-07-03T08:58:18.810Z,42.02
2018-07-03T08:59:18.745Z,42.11
2018-07-03T09:00:18.735Z,42.11
2018-07-03T09:01:18.728Z,42.11
2018-07-03T09:02:18.721Z,41.92
2018-07-03T09:03:18.718Z,42.02
2018-07-03T09:04:18.710Z,41.82
2018-07-03T09:05:18.708Z,41.92
2018-07-03T09:06:18.702Z,41.63
2018-07-03T09:07:18.696Z,41.64
2018-07-03T09:08:18.689Z,41.64
2018-07-03T09:09:18.684Z,41.64
2018-07-03T09:10:18.678Z,41.64
2018-07-03T09:11:18.672Z,41.94
2018-07-03T09:12:18.667Z,41.64
2018-07-03T09:13:18.663Z,41.84
2018-07-03T09:14:18.658Z,41.74
2018-07-03T09:15:18.650Z,41.45
2018-07-03T09:16:18.645Z,41.26
2018-07-03T09:17:18.651Z,41.45
2018-07-03T09:18:18.635Z,41.64
2018-07-03T09:19:18.630Z,41.55
2018-07-03T09:20:18.624Z,41.26
2018-07-03T09:21:18.619Z,41.26
2018-07-03T09:22:18.613Z,41.26
2018-07-03T09:23:18.613Z,41.36
2018-07-03T09:24:18.604Z,41.26
2018-07-03T09:25:18.596Z,41.45
2018-07-03T09:26:18.594Z,41.18
2018-07-03T09:27:18.587Z,41.38
2018-07-03T09:28:18.592Z,41.18
2018-07-03T09:29:18.575Z,40.99
2018-07-03T09:30:18.607Z,40.89
2018-07-03T09:31:18.566Z,40.79
2018-07-03T09:32:18.559Z,40.89
2018-07-03T09:33:18.554Z,40.69
2018-07-03T09:34:18.549Z,40.69
2018-07-03T09:35:18.544Z,40.69
2018-07-03T09:36:18.545Z,40.79
2018-07-03T09:37:18.536Z,40.79
2018-07-03T09:38:18.528Z,40.89
2018-07-03T09:39:18.527Z,40.60
2018-07-03T09:40:18.516Z,40.79
2018-07-03T09:41:18.515Z,40.60
2018-07-03T09:42:18.507Z,40.41
2018-07-03T09:43:18.501Z,40.60
2018-07-03T09:44:18.495Z,40.62
2018-07-03T09:45:18.489Z,40.60
2018-07-03T09:46:18.488Z,40.52
2018-07-03T09:47:18.481Z,40.60
2018-07-03T09:48:18.475Z,40.52
2018-07-03T09:49:18.476Z,40.33
2018-07-03T09:50:18.465Z,40.42
2018-07-03T09:51:18.461Z,40.13
2018-07-03T09:52:18.455Z,40.23
2018-07-03T09:53:18.451Z,40.33
2018-07-03T09:54:18.451Z,40.03
2018-07-03T09:55:18.440Z,40.13
2018-07-03T09:56:18.436Z,39.94
2018-07-03T09:57:18.429Z,40.33
2018-07-03T09:58:18.426Z,40.23
2018-07-03T09:59:18.420Z,40.33
2018-07-03T10:00:18.415Z,40.13
2018-07-03T10:01:18.408Z,40.13
2018-07-03T10:02:18.404Z,39.94
2018-07-03T10:03:18.399Z,39.84
2018-07-03T10:04:18.394Z,39.94
2018-07-03T10:05:18.390Z,39.84
2018-07-03T10:06:18.387Z,39.84
2018-07-03T10:07:18.382Z,40.03
2018-07-03T10:08:18.373Z,39.94
2018-07-03T10:09:18.368Z,40.03
2018-07-03T10:10:18.364Z,39.84
2018-07-03T10:11:18.358Z,39.67
2018-07-03T10:12:18.355Z,40.03
2018-07-03T10:13:18.352Z,40.06
2018-07-03T10:14:18.344Z,39.96
2018-07-03T10:15:18.340Z,39.96
2018-07-03T10:16:18.336Z,40.06
2018-07-03T10:17:18.330Z,39.96
2018-07-03T10:18:18.324Z,40.06
2018-07-03T10:19:18.319Z,40.06
2018-07-03T10:20:18.315Z,40.06
2018-07-03T10:21:18.314Z,39.47
2018-07-03T10:22:18.304Z,39.57
2018-07-03T10:23:18.299Z,39.57
2018-07-03T10:24:18.294Z,39.47
2018-07-03T10:25:18.290Z,39.57
2018-07-03T10:26:18.285Z,39.37
2018-07-03T10:27:18.283Z,39.47
2018-07-03T10:28:18.276Z,39.47
2018-07-03T10:29:18.270Z,39.57
2018-07-03T10:30:18.266Z,39.47
2018-07-03T10:31:18.263Z,39.47
2018-07-03T10:32:18.258Z,39.47
2018-07-03T10:33:18.251Z,39.47
2018-07-03T10:34:18.247Z,39.86
2018-07-03T10:35:18.242Z,39.28
2018-07-03T10:36:18.236Z,39.86
2018-07-03T10:37:18.235Z,39.86
2018-07-03T10:38:18.227Z,39.86
2018-07-03T10:39:18.224Z,39.47
2018-07-03T10:40:18.218Z,39.47
2018-07-03T10:41:18.212Z,39.28
2018-07-03T10:42:18.206Z,39.28
2018-07-03T10:43:18.206Z,39.37
2018-07-03T10:44:18.198Z,39.37
2018-07-03T10:45:18.193Z,39.18
2018-07-03T10:46:18.188Z,39.08
2018-07-03T10:47:18.184Z,39.18
2018-07-03T10:48:18.179Z,39.08
2018-07-03T10:49:18.175Z,39.08
2018-07-03T10:50:18.171Z,39.08
2018-07-03T10:51:18.167Z,39.08
2018-07-03T10:52:18.160Z,38.98
2018-07-03T10:53:18.155Z,39.37
2018-07-03T10:54:18.152Z,39.18
2018-07-03T10:55:18.149Z,39.28
2018-07-03T10:56:18.142Z,39.47
2018-07-03T10:57:18.137Z,39.47
2018-07-03T10:58:18.131Z,39.37
2018-07-03T10:59:18.128Z,39.28
2018-07-03T11:00:18.121Z,38.89
2018-07-03T11:01:18.118Z,39.28
2018-07-03T11:02:18.114Z,38.89
2018-07-03T11:03:18.107Z,39.18
2018-07-03T11:04:18.104Z,39.28
2018-07-03T11:05:18.100Z,39.08
2018-07-03T11:06:18.098Z,38.79
2018-07-03T11:07:18.090Z,39.37
2018-07-03T11:08:18.085Z,38.89
2018-07-03T11:09:18.081Z,39.37
2018-07-03T11:10:18.076Z,39.28
2018-07-03T11:11:18.071Z,39.18
2018-07-03T11:12:18.067Z,38.89
2018-07-03T11:13:18.060Z,39.20
2018-07-03T11:14:18.057Z,39.18
2018-07-03T11:15:18.053Z,39.20
2018-07-03T11:16:18.046Z,39.20
2018-07-03T11:17:18.043Z,39.29
2018-07-03T11:18:18.039Z,39.20
2018-07-03T11:19:18.033Z,39.29
2018-07-03T11:20:18.077Z,39.20
2018-07-03T11:21:18.048Z,39.20
2018-07-03T11:22:18.018Z,39.20
2018-07-03T11:23:18.015Z,39.20
2018-07-03T11:24:18.010Z,39.20
2018-07-03T11:25:18.006Z,39.29
2018-07-03T11:26:18.000Z,39.20
2018-07-03T11:27:17.997Z,39.20
2018-07-03T11:28:17.991Z,39.20
2018-07-03T11:29:17.988Z,39.10
2018-07-03T11:30:17.984Z,39.20
2018-07-03T11:31:17.976Z,39.20
2018-07-03T11:32:17.974Z,39.00
2018-07-03T11:33:17.969Z,39.20
2018-07-03T11:34:17.963Z,39.18
2018-07-03T11:35:17.961Z,39.00
2018-07-03T11:36:17.953Z,39.10
2018-07-03T11:37:17.949Z,39.20
2018-07-03T11:38:17.945Z,39.29
2018-07-03T11:39:17.940Z,39.49
2018-07-03T11:40:17.936Z,39.20
2018-07-03T11:41:17.930Z,39.20
2018-07-03T11:42:17.929Z,39.20
2018-07-03T11:43:17.993Z,39.18
2018-07-03T11:44:17.926Z,39.29
2018-07-03T11:45:17.912Z,39.29
2018-07-03T11:46:17.915Z,39.39
2018-07-03T11:47:17.906Z,39.39
2018-07-03T11:48:17.898Z,39.39
2018-07-03T11:49:17.893Z,39.37
2018-07-03T11:50:17.893Z,39.10
2018-07-03T11:51:17.881Z,39.08
2018-07-03T11:52:17.880Z,39.29
2018-07-03T11:53:17.875Z,39.10
2018-07-03T11:54:17.878Z,39.20
2018-07-03T11:55:17.865Z,39.28
2018-07-03T11:56:17.860Z,39.37
2018-07-03T11:57:17.855Z,39.37
2018-07-03T11:58:17.859Z,39.28
2018-07-03T11:59:17.847Z,39.28
2018-07-03T12:00:17.842Z,39.29
2018-07-03T12:01:17.864Z,39.28
2018-07-03T12:02:17.832Z,39.47
2018-07-03T12:03:17.829Z,39.96
2018-07-03T12:04:17.822Z,39.86
2018-07-03T12:05:17.819Z,39.86
2018-07-03T12:06:17.812Z,39.47
2018-07-03T12:07:17.809Z,39.86
2018-07-03T12:08:17.803Z,39.47
2018-07-03T12:09:17.809Z,39.47
2018-07-03T12:10:17.795Z,39.47
2018-07-03T12:11:17.824Z,39.47
2018-07-03T12:12:17.786Z,39.47
2018-07-03T12:13:17.781Z,39.37
2018-07-03T12:14:17.777Z,39.67
2018-07-03T12:15:17.770Z,39.37
2018-07-03T12:16:17.768Z,39.67
2018-07-03T12:17:17.763Z,39.47
2018-07-03T12:18:17.757Z,39.86
2018-07-03T12:19:17.752Z,39.76
2018-07-03T12:20:17.748Z,39.76
2018-07-03T12:21:17.741Z,39.76
2018-07-03T12:22:17.740Z,39.86
2018-07-03T12:23:17.735Z,40.06
2018-07-03T12:24:17.728Z,40.06
2018-07-03T12:25:17.724Z,39.96
2018-07-03T12:26:17.721Z,40.15
2018-07-03T12:27:17.715Z,40.06
2018-07-03T12:28:17.710Z,40.15
2018-07-03T12:29:17.708Z,39.96
2018-07-03T12:30:17.699Z,39.86
2018-07-03T12:31:17.698Z,40.06
2018-07-03T12:32:17.691Z,40.06
2018-07-03T12:33:17.685Z,40.15
2018-07-03T12:34:17.684Z,40.06
2018-07-03T12:35:17.678Z,39.86
2018-07-03T12:36:17.671Z,39.86
2018-07-03T12:37:17.666Z,39.76
2018-07-03T12:38:17.663Z,39.76
2018-07-03T12:39:17.657Z,39.86
2018-07-03T12:40:17.655Z,39.96
2018-07-03T12:41:17.648Z,39.86
2018-07-03T12:42:17.644Z,39.86
2018-07-03T12:43:17.642Z,39.96
2018-07-03T12:44:17.637Z,39.86
2018-07-03T12:45:17.629Z,40.06
2018-07-03T12:46:17.625Z,40.06
2018-07-03T12:47:17.621Z,39.96
2018-07-03T12:48:17.615Z,39.96
2018-07-03T12:49:17.610Z,39.86
2018-07-03T12:50:17.607Z,39.86
2018-07-03T12:51:17.600Z,39.86
2018-07-03T12:52:17.595Z,39.86